Tiempo atmosférico en la estación meteorológica de Telde, Melenara, Las Palmas (9 m.)



Fecha
DESCASC
Temp. máxima en grados centígrados (hora)
DESCASC
Temp. mínima en grados centígrados (hora)
DESCASC
Temp. media en grados centígrados
DESCASC
Racha de viento máxima en m/sg (hora)
DESCASC
Velocidad máxima media en intervalos de 10 minutos(hora)
DESCASC
Precipitaciones diarias en mm
DESCASC
Precipitaciones de 00:00 a 06:00 en mm
DESCASC
Precipitaciones de 06:00 a 12:00 en mm
DESCASC
Precipitaciones de 12:00 a 18:00 en mm
DESCASC
Precipitaciones de 18:00 a 24:00 en mm
DESCASC
02-04-2020 21.7 (14:20) 16.4 (03:10) 19.1 7.5 (15:40) 5 (15:30) 0 0 0 0 0
01-04-2020 -- (--) -- (--) -- -- (--) -- (--) -- 0 -- 0 0
31-03-2020 21.4 (11:50) 14 (00:00) 17.7 3.61 (06:20) 2.78 (06:20) 0 0 0 0 0
30-03-2020 21.2 (14:30) 13.5 (00:00) 17.4 6.39 (17:00) 3.33 (05:40) 0 0 0 0 0
29-03-2020 20.2 (12:40) 13.3 (00:00) 16.8 4.72 (11:30) 3.33 (05:00) 0 0 0 0 0
28-03-2020 21 (14:50) 14.4 (00:00) 17.7 9.72 (04:30) 5.83 (13:10) 0.8 0.8 0 0 0
27-03-2020 20.8 (12:20) 12.9 (00:00) 16.8 8.33 (11:00) 5.28 (12:00) 7.6 0 0 0 7.6
26-03-2020 20.2 (11:40) 14 (00:00) 17.1 6.11 (11:50) 4.17 (11:50) 0 0 0 0 0
25-03-2020 20.5 (12:00) 15.6 (00:00) 18.1 8.06 (12:30) 5 (12:30) 0 0 0 0 0
24-03-2020 22.4 (13:30) 15.7 (00:00) 19 12.5 (12:00) 6.67 (14:10) 1.4 1.4 0 0 0
23-03-2020 20.1 (14:10) 13.6 (00:00) 16.9 16.11 (06:40) 8.89 (06:50) 8.2 0.2 6.8 0.6 0.6
22-03-2020 20.6 (12:00) 15.1 (19:30) 17.9 12.5 (19:30) 7.22 (19:30) 0.4 0 0.2 0 0.2
21-03-2020 20.1 (12:00) 16 (00:00) 18.1 10.56 (15:40) 6.11 (12:30) 0 0 0 0 0
20-03-2020 21.6 (12:30) 17 (00:00) 19.3 10.83 (00:20) 6.39 (00:20) 0.2 0 0 0 0.2
19-03-2020 21.8 (14:40) 17.1 (00:00) 19.4 13.61 (12:50) 8.61 (12:00) 0.4 0.2 0.2 0 0
18-03-2020 21.4 (13:10) 14.7 (00:00) 18 13.89 (17:10) 8.06 (16:10) 0.4 0.4 0 0 0
17-03-2020 19.1 (14:50) 14.5 (00:00) 16.8 12.78 (20:20) 7.22 (12:50) 0.4 0.2 0.2 0 0
16-03-2020 21.5 (12:50) 16.7 (00:00) 19.1 13.61 (19:20) 7.5 (23:50) 0.6 0.4 0 0 0.2
15-03-2020 21.5 (15:20) 16.3 (00:00) 18.9 11.67 (18:40) 6.67 (18:50) 0.2 0 0 0.2 0
14-03-2020 20.7 (12:10) 16.8 (00:00) 18.8 8.89 (00:20) 5.83 (12:10) 0 0 0 0 0
13-03-2020 21 (12:40) 17.9 (00:00) 19.4 9.72 (16:00) 5.83 (15:50) 0 0 0 0 0
12-03-2020 22 (14:00) 15.4 (00:00) 18.7 8.06 (17:20) 5.28 (17:20) 0 0 0 0 0
11-03-2020 22.9 (13:50) 14.5 (00:00) 18.7 7.78 (00:40) 4.72 (00:40) 0 0 0 0 0
10-03-2020 21.6 (13:40) 15.7 (00:00) 18.7 8.33 (14:40) 5.28 (14:20) 0 0 0 0 0
09-03-2020 22 (14:10) 17 (00:00) 19.5 8.33 (08:40) 5.56 (08:40) 0 0 0 0 0
08-03-2020 21.9 (15:00) 17.1 (00:00) 19.5 11.11 (01:10) 6.39 (13:30) 0 0 0 0 0
07-03-2020 21.1 (14:20) 17.4 (00:00) 19.3 11.67 (12:20) 7.22 (12:40) 0 0 0 0 0
06-03-2020 19.8 (15:50) 16.8 (00:00) 18.3 12.5 (09:50) 7.5 (08:30) 0.6 0.6 0 0 0
05-03-2020 20.8 (14:30) 17.9 (00:00) 19.3 10.83 (14:20) 6.39 (17:10) 0 0 0 0 0

Gráficas

Temp. máximas Temp. mínimas Temp. medias Precipitaciones Rachas de viento máximas Velocidades máximas media en intervalos de 10 minutos

Datos horarios

Fecha y hora oficial Temperatura (ºC) Velocidad del viento (km/h) Dirección del viento Racha (km/h) Dirección de racha Precipitación (mm) Presión (hPa) Tendencia (hPa) Humedad (%)
2020-04-03 23:00:00 19.3 0 Calma 8 Norte 0 -- -- 73
2020-04-03 22:00:00 19.9 4 Norte 8 Norte 0 -- -- 69
2020-04-03 21:00:00 20.1 5 Norte 14 Norte 0 -- -- 70
2020-04-03 20:00:00 20.7 8 Norte 18 Noroeste 0 -- -- 65
2020-04-03 19:00:00 21.6 9 Norte 18 Norte 0 -- -- 61
2020-04-03 18:00:00 22.4 5 Este 17 Sudeste 0 -- -- 61
2020-04-03 17:00:00 21.7 8 Sudeste 28 Sudeste 0 -- -- 66
2020-04-03 16:00:00 21.9 10 Sur 28 Sur 0 -- -- 63
2020-04-03 15:00:00 21.5 12 Sudeste 30 Sudeste 0 -- -- 63
2020-04-03 14:00:00 21.3 9 Sudeste 23 Sudeste 0 -- -- 65
2020-04-03 13:00:00 20.6 9 Sudeste 23 Sudeste 0 -- -- 66
2020-04-03 12:00:00 20.7 8 Sudeste 16 Sudeste 0 -- -- 63
2020-04-03 11:00:00 20.1 6 Sudeste 10 Sudeste 0 -- -- 64
2020-04-03 10:00:00 18.3 2 Oeste 8 Oeste 0 -- -- 68
2020-04-03 09:00:00 16 5 Oeste 10 Oeste 0 -- -- 76
2020-04-03 08:00:00 15 8 Oeste 10 Oeste 0 -- -- 76
2020-04-03 07:00:00 16.3 7 Oeste 13 Oeste 0 -- -- 71
2020-04-03 06:00:00 16 10 Oeste 14 Oeste 0 -- -- 73
2020-04-03 05:00:00 15.5 8 Oeste 12 Oeste 0 -- -- 76
2020-04-03 04:00:00 15.6 5 Oeste 11 Oeste 0 -- -- 74
2020-04-03 03:00:00 16.4 5 Oeste 10 Oeste 0 -- -- 73
2020-04-03 02:00:00 16.7 4 Oeste 5 Oeste 0 -- -- 74
2020-04-03 01:00:00 17.6 3 Noroeste 12 Norte 0 -- -- 68
2020-04-03 00:00:00 18.2 5 Norte 14 Nordeste 0 -- -- 68
2020-04-02 23:00:00 18.3 7 Norte 14 Norte 0 -- -- 68
2020-04-02 22:00:00 18.3 7 Norte 18 Norte 0 -- -- 68
2020-04-02 21:00:00 18.4 11 Norte 18 Nordeste 0 -- -- 69
2020-04-02 20:00:00 19 11 Nordeste 21 Norte 0 -- -- 68
2020-04-02 19:00:00 19.4 14 Nordeste 25 Nordeste 0 -- -- 64
2020-04-02 18:00:00 20.2 17 Nordeste 25 Norte 0 -- -- 62
2020-04-02 17:00:00 20.9 15 Norte 25 Nordeste 0 -- -- 60
2020-04-02 16:00:00 21.1 17 Nordeste 27 Norte 0 -- -- 59
2020-04-02 15:00:00 21.5 17 Nordeste 26 Este 0 -- -- 58
2020-04-02 14:00:00 21.5 14 Nordeste 24 Nordeste 0 -- -- 60
2020-04-02 13:00:00 21.2 13 Nordeste 21 Nordeste 0 -- -- 62
2020-04-02 12:00:00 20.3 10 Nordeste 16 Nordeste 0 -- -- 64
2020-04-02 11:00:00 20.3 9 Nordeste 17 Nordeste 0 -- -- 64
2020-04-02 10:00:00 19.8 10 Norte 17 Nordeste 0 -- -- 65
2020-04-02 09:00:00 18.2 7 Noroeste 13 Noroeste 0 -- -- 70
2020-04-02 08:00:00 17.2 6 Noroeste 17 Norte 0 -- -- 73
2020-04-02 07:00:00 17.9 8 Norte 17 Nordeste 0 -- -- 73
2020-04-02 06:00:00 17 7 Noroeste 18 Noroeste 0 -- -- 75
2020-04-02 05:00:00 17.3 9 Noroeste 15 Noroeste 0 -- -- 74
2020-04-02 04:00:00 16.7 6 Noroeste 16 Noroeste 0 -- -- 76
2020-04-02 03:00:00 16.6 7 Noroeste 12 Noroeste 0 -- -- 75
2020-04-02 02:00:00 16.9 8 Noroeste 11 Noroeste 0 -- -- 74
2020-04-02 01:00:00 17.7 5 Norte 16 Norte 0 -- -- 71
2020-04-02 00:00:00 18.3 7 Norte 16 Norte 0 -- -- 71
2020-04-01 23:00:00 18.7 10 Norte 19 Norte 0 -- -- 69
2020-04-01 22:00:00 18.7 10 Norte 19 Norte 0 -- -- 70
2020-04-01 21:00:00 18.8 10 Norte 21 Norte 0 -- -- 69
2020-04-01 20:00:00 19.3 12 Norte 22 Norte 0 -- -- 67
2020-04-01 19:00:00 20 14 Nordeste 22 Nordeste 0 -- -- 63
2020-04-01 18:00:00 20.6 13 Norte 21 Nordeste 0 -- -- 62
2020-04-01 17:00:00 20.4 14 Nordeste 20 Norte 0 -- -- 64
2020-04-01 16:00:00 20.9 12 Nordeste 21 Norte 0 -- -- 61
2020-04-01 15:00:00 21.1 11 Nordeste 22 Este 0 -- -- 61
2020-04-01 14:00:00 21.3 15 Nordeste 23 Este 0 -- -- 60
2020-04-01 13:00:00 21.3 14 Nordeste -- -- -- -- -- 60
2020-04-01 12:00:00 -- -- -- -- -- -- -- -- --
2020-04-01 11:00:00 19.8 9 Nordeste 14 Este 0 -- -- 67
2020-04-01 10:00:00 19.2 9 Nordeste 13 Nordeste 0 -- -- 68
2020-04-01 09:00:00 18.9 7 Nordeste 16 Nordeste 0 -- -- 70
2020-04-01 08:00:00 18.3 7 Norte 19 Nordeste 0 -- -- 73
2020-04-01 07:00:00 18.3 9 Norte 20 Norte 0 -- -- 76
2020-04-01 06:00:00 18.3 8 Norte 18 Norte 0 -- -- 76
2020-04-01 05:00:00 18.3 7 Norte 17 Norte 0 -- -- 76
2020-04-01 04:00:00 18.4 10 Norte 17 Noroeste 0 -- -- 76
2020-04-01 03:00:00 18.2 5 Noroeste 11 Noroeste 0 -- -- 80
2020-04-01 02:00:00 18.8 5 Norte 12 Nordeste 0 -- -- 75
2020-04-01 01:00:00 19 6 Norte 13 Norte 0 -- -- 74
2020-04-01 00:00:00 19 6 Norte 12 Norte 0 -- -- 74
2020-03-31 23:00:00 18.9 0 Calma 3 Noroeste 0 -- -- 77
2020-03-31 22:00:00 19.1 0 Calma 4 Sudoeste 0 -- -- 74
2020-03-31 21:00:00 19.2 2 Oeste 4 Sudeste 0 -- -- 73
2020-03-31 20:00:00 19.4 3 Sur 6 Nordeste 0 -- -- 72
2020-03-31 19:00:00 19.6 3 Nordeste 6 Este 0 -- -- 71
2020-03-31 18:00:00 19.8 4 Este 7 Este 0 -- -- 72
2020-03-31 17:00:00 20.1 4 Este 9 Este 0 -- -- 72
2020-03-31 16:00:00 19.9 6 Este 9 Nordeste 0 -- -- 72
2020-03-31 15:00:00 20.1 6 Nordeste 12 Nordeste 0 -- -- 68
2020-03-31 14:00:00 20 8 Nordeste 12 Este 0 -- -- 68
2020-03-31 13:00:00 20.8 5 Sudeste 11 Este 0 -- -- 66
2020-03-31 12:00:00 20.8 7 Este 12 Este 0 -- -- 66
2020-03-31 11:00:00 20.5 7 Este 11 Este 0 -- -- 68
2020-03-31 10:00:00 19.9 3 Este 5 Este 0 -- -- 62
2020-03-31 09:00:00 15.5 5 Oeste 12 Oeste 0 -- -- 80
2020-03-31 08:00:00 14.4 5 Oeste 10 Oeste 0 -- -- 79
2020-03-31 07:00:00 14.7 6 Oeste 13 Oeste 0 -- -- 79
2020-03-31 06:00:00 14.9 5 Oeste 12 Oeste 0 -- -- 79
2020-03-31 05:00:00 15.5 6 Sudoeste 12 Oeste 0 -- -- 83
2020-03-31 04:00:00 14.3 4 Oeste 8 Sudoeste 0 -- -- 83
2020-03-31 03:00:00 14.7 4 Noroeste 7 Oeste 0 -- -- 82
2020-03-31 02:00:00 15 4 Noroeste 12 Oeste 0 -- -- 82
2020-03-31 01:00:00 15.1 8 Oeste 10 Oeste 0 -- -- 80
2020-03-31 00:00:00 15.6 8 Oeste 11 Oeste 0 -- -- 81
2020-03-30 23:00:00 16.4 4 Oeste 10 Norte 0 -- -- 79
2020-03-30 22:00:00 18.5 5 Norte 11 Nordeste 0 -- -- 75
2020-03-30 21:00:00 18.8 7 Norte 12 Nordeste 0 -- -- 74
2020-03-30 20:00:00 19.3 6 Norte 11 Norte 0 -- -- 70
2020-03-30 19:00:00 20 5 Nordeste 15 Sudeste 0 -- -- 66
2020-03-30 18:00:00 20.2 7 Sudeste 19 Sudeste 0 -- -- 69
2020-03-30 17:00:00 20.3 10 Sudeste 23 Sudeste 0 -- -- 67
2020-03-30 16:00:00 20.3 9 Sudeste 22 Este 0 -- -- 67
2020-03-30 15:00:00 20.3 7 Sudeste 15 Este 0 -- -- 66
2020-03-30 14:00:00 20.9 6 Sudeste 14 Sudeste 0 -- -- 64
2020-03-30 13:00:00 19.9 8 Este 14 Este 0 -- -- 66
2020-03-30 12:00:00 20.1 8 Este 13 Este 0 -- -- 64
2020-03-30 11:00:00 20.1 8 Este 11 Este 0 -- -- 63
2020-03-30 10:00:00 19.3 3 Norte 9 Oeste 0 -- -- 65
2020-03-30 09:00:00 16.1 4 Oeste 13 Oeste 0 -- -- 73
2020-03-30 08:00:00 13.6 5 Oeste 10 Oeste 0 -- -- 79
2020-03-30 07:00:00 13.5 8 Oeste 15 Oeste 0 -- -- 78
2020-03-30 06:00:00 14.2 10 Oeste 15 Oeste 0 -- -- 76
2020-03-30 05:00:00 14.6 10 Oeste 15 Oeste 0 -- -- 76
2020-03-30 04:00:00 15.3 10 Oeste 14 Oeste 0 -- -- 74
2020-03-30 03:00:00 15.6 10 Oeste 12 Oeste 0 -- -- 75
2020-03-30 02:00:00 15.5 10 Oeste 14 Oeste 0 -- -- 75
2020-03-30 01:00:00 15.3 6 Oeste 9 Oeste 0 -- -- 76
2020-03-30 00:00:00 16.7 5 Oeste 8 Oeste 0 -- -- 74
2020-03-29 23:00:00 17.6 2 Oeste 4 Oeste 0 -- -- 71
2020-03-29 22:00:00 18.3 0 Calma 4 Este 0 -- -- 66
2020-03-29 21:00:00 18.4 2 Este 8 Nordeste 0 -- -- 65
2020-03-29 20:00:00 18.6 4 Nordeste 9 Nordeste 0 -- -- 67
2020-03-29 19:00:00 18.8 5 Este 8 Este 0 -- -- 67
2020-03-29 18:00:00 19.1 5 Este 9 Este 0 -- -- 67
2020-03-29 17:00:00 19 4 Este 9 Sudeste 0 -- -- 65
2020-03-29 16:00:00 18.8 5 Este 9 Este 0 -- -- 64
2020-03-29 15:00:00 19.2 4 Este 10 Este 0 -- -- 63
2020-03-29 14:00:00 19.6 6 Este 14 Este 0 -- -- 62
2020-03-29 13:00:00 20 9 Este 17 Este 0 -- -- 60
2020-03-29 12:00:00 20 11 Este 17 Este 0 -- -- 62
2020-03-29 11:00:00 19.4 9 Nordeste 14 Nordeste 0 -- -- 63
2020-03-29 10:00:00 18.8 4 Norte 13 Oeste 0 -- -- 65
2020-03-29 09:00:00 15.7 11 Oeste 15 Oeste 0 -- -- 69
2020-03-29 08:00:00 13.6 11 Oeste 15 Oeste 0 -- -- 74
2020-03-29 07:00:00 13.5 11 Oeste 14 Oeste 0 -- -- 76
2020-03-29 06:00:00 13.7 10 Oeste 14 Oeste 0 -- -- 76
2020-03-29 05:00:00 13.7 12 Oeste 14 Oeste 0 -- -- 74
2020-03-29 04:00:00 14.1 11 Oeste 15 Oeste 0 -- -- 72
2020-03-29 00:00:00 14.5 9 Oeste 11 Oeste 0 -- -- 74
2020-03-28 23:00:00 15 8 Oeste 10 Oeste 0 -- -- 77
2020-03-28 22:00:00 16.1 8 Noroeste 10 Noroeste 0 -- -- 76
2020-03-28 21:00:00 17.1 6 Noroeste 14 Norte 0 -- -- 72
2020-03-28 20:00:00 18 8 Norte 19 Norte 0 -- -- 70
2020-03-28 19:00:00 18.5 12 Norte 23 Norte 0 -- -- 68
2020-03-28 18:00:00 19 12 Norte 24 Norte 0 -- -- 67
2020-03-28 17:00:00 19.2 15 Norte 26 Norte 0 -- -- 64
2020-03-28 16:00:00 20.2 14 Norte 31 Nordeste 0 -- -- 60
2020-03-28 15:00:00 20.4 19 Nordeste 31 Norte 0 -- -- 58
2020-03-28 14:00:00 20.6 17 Norte 32 Nordeste 0 -- -- 60
2020-03-28 13:00:00 20.4 19 Nordeste 29 Norte 0 -- -- 61
2020-03-28 12:00:00 20.1 17 Norte 30 Norte 0 -- -- 60
2020-03-28 11:00:00 20.2 16 Norte 27 Noroeste 0 -- -- 59
2020-03-28 10:00:00 19.3 15 Noroeste 25 Noroeste 0 -- -- 61
2020-03-28 09:00:00 17.9 15 Noroeste 24 Noroeste 0 -- -- 69
2020-03-28 08:00:00 15.4 8 Noroeste 15 Noroeste 0 -- -- 76
2020-03-28 07:00:00 14.9 8 Noroeste 21 Noroeste 0 -- -- 77
2020-03-28 06:00:00 15.3 13 Noroeste 22 Norte 0 -- -- 75
2020-03-28 05:00:00 15.4 13 Noroeste 35 Noroeste 0 -- -- 72
2020-03-28 04:00:00 15 15 Noroeste 23 Noroeste 0 -- -- 77
2020-03-28 03:00:00 15.4 10 Noroeste 20 Noroeste 0 -- -- 82
2020-03-28 02:00:00 15.2 5 Norte 10 Norte 0 -- -- 87
2020-03-28 01:00:00 15.5 3 Sudoeste 13 Oeste 0.8 -- -- 88
2020-03-28 00:00:00 15.7 0 Calma 13 Norte 0.6 -- -- 88
2020-03-27 23:00:00 15.9 9 Norte 22 Nordeste 7 -- -- 89
2020-03-27 22:00:00 17.3 0 Calma 8 Sudeste 0 -- -- 79
2020-03-27 21:00:00 17.3 2 Sudeste 10 Este 0 -- -- 79
2020-03-27 20:00:00 17.4 4 Este 11 Nordeste 0 -- -- 78
2020-03-27 19:00:00 17.7 9 Nordeste 13 Este 0 -- -- 75
2020-03-27 18:00:00 18.6 5 Sudeste 12 Sur 0 -- -- 69
2020-03-27 17:00:00 19.1 6 Este 14 Sudeste 0 -- -- 69
2020-03-27 16:00:00 19.9 6 Sudeste 19 Este 0 -- -- 62
2020-03-27 15:00:00 19.5 14 Nordeste 25 Nordeste 0 -- -- 61
2020-03-27 14:00:00 20.5 15 Nordeste 24 Norte 0 -- -- 58
2020-03-27 13:00:00 19.6 12 Norte 26 Norte 0 -- -- 59
2020-03-27 12:00:00 20.4 19 Nordeste 28 Norte 0 -- -- 58
2020-03-27 11:00:00 19.3 15 Norte 30 Noroeste 0 -- -- 62
2020-03-27 10:00:00 20 15 Noroeste 30 Noroeste 0 -- -- 56
2020-03-27 09:00:00 18.7 14 Noroeste 27 Norte 0 -- -- 60
2020-03-27 08:00:00 17 6 Norte 12 Noroeste 0 -- -- 67
2020-03-27 07:00:00 15.3 6 Noroeste 12 Noroeste 0 -- -- 69
2020-03-27 06:00:00 15.7 7 Noroeste 26 Oeste 0 -- -- 67
2020-03-27 05:00:00 15.1 11 Noroeste 19 Noroeste 0 -- -- 70
2020-03-27 04:00:00 13.1 5 Oeste 8 Oeste 0 -- -- 72
2020-03-27 03:00:00 13.5 8 Oeste 13 Oeste 0 -- -- 71
2020-03-27 02:00:00 14.2 9 Oeste 12 Oeste 0 -- -- 72
2020-03-27 01:00:00 14 9 Oeste 13 Oeste 0 -- -- 76
2020-03-27 00:00:00 14.4 7 Oeste 10 Oeste 0 -- -- 79
2020-03-26 23:00:00 15.4 6 Oeste 8 Oeste 0 -- -- 77
2020-03-26 22:00:00 15.4 5 Noroeste 8 Oeste 0 -- -- 75
2020-03-26 21:00:00 16.6 4 Noroeste 7 Oeste 0 -- -- 73
2020-03-26 20:00:00 16.9 2 Sur 5 Sur 0 -- -- 74
2020-03-26 19:00:00 17.7 3 Sudoeste 9 Sur 0 -- -- 68
2020-03-26 18:00:00 18 4 Sudoeste 9 Sur 0 -- -- 68
2020-03-26 17:00:00 17.9 5 Sur 12 Noroeste 0 -- -- 69
2020-03-26 16:00:00 18.1 6 Oeste 14 Oeste 0 -- -- 67
2020-03-26 15:00:00 17.6 6 Sudoeste 17 Oeste 0 -- -- 75
2020-03-26 14:00:00 18.4 9 Sudeste 16 Sudeste 0 -- -- 69
2020-03-26 13:00:00 19.2 10 Nordeste 20 Nordeste 0 -- -- 60
2020-03-26 12:00:00 19.9 12 Nordeste 22 Nordeste 0 -- -- 59
2020-03-26 11:00:00 19.6 13 Nordeste 20 Nordeste 0 -- -- 58
2020-03-26 10:00:00 19.2 11 Nordeste 15 Norte 0 -- -- 61
2020-03-26 09:00:00 18.6 5 Norte 14 Noroeste 0 -- -- 63
2020-03-26 08:00:00 15.4 7 Oeste 13 Oeste 0 -- -- 68
2020-03-26 07:00:00 14.1 10 Oeste 15 Oeste 0 -- -- 73
2020-03-26 06:00:00 15.1 10 Oeste 13 Oeste 0 -- -- 72
2020-03-26 05:00:00 15.7 6 Noroeste 10 Noroeste 0 -- -- 74
2020-03-26 04:00:00 16.3 8 Noroeste 12 Oeste 0 -- -- 72
2020-03-26 03:00:00 16.4 5 Noroeste 10 Noroeste 0 -- -- 70
2020-03-26 02:00:00 17.3 6 Nordeste 13 Norte 0 -- -- 66
2020-03-26 01:00:00 16.7 4 Noroeste 10 Noroeste 0 -- -- 68
2020-03-26 00:00:00 16.8 7 Noroeste 13 Oeste 0 -- -- 66
2020-03-25 23:00:00 16.3 6 Oeste 17 Norte 0 -- -- 67
2020-03-25 22:00:00 17.2 9 Norte 22 Norte 0 -- -- 63
2020-03-25 21:00:00 17.6 10 Norte 19 Norte 0 -- -- 64
2020-03-25 20:00:00 18 11 Norte 19 Norte 0 -- -- 65
2020-03-25 19:00:00 18.3 10 Norte 22 Norte 0 -- -- 66
2020-03-25 18:00:00 18.9 10 Norte 19 Norte 0 -- -- 60
2020-03-25 17:00:00 18.7 13 Nordeste 21 Nordeste 0 -- -- 60
2020-03-25 16:00:00 18.9 15 Nordeste 22 Norte 0 -- -- 63
2020-03-25 15:00:00 19.4 12 Nordeste 24 Nordeste 0 -- -- 62
2020-03-25 14:00:00 19.3 15 Norte 26 Nordeste 0 -- -- 62
2020-03-25 13:00:00 19.9 18 Nordeste 29 Nordeste 0 -- -- 58
2020-03-25 12:00:00 20.5 14 Norte 26 Nordeste 0 -- -- 60
2020-03-25 11:00:00 19.5 12 Norte 26 Norte 0 -- -- 62
2020-03-25 10:00:00 18.8 10 Norte 21 Norte 0 -- -- 61
2020-03-25 09:00:00 18.7 7 Norte 13 Norte 0 -- -- 55
2020-03-25 08:00:00 17.3 9 Noroeste 12 Oeste 0 -- -- 68
2020-03-25 07:00:00 15.8 8 Oeste 12 Oeste 0 -- -- 74
2020-03-25 06:00:00 16 8 Noroeste 11 Noroeste 0 -- -- 72
2020-03-25 05:00:00 16.8 6 Noroeste 18 Noroeste 0 -- -- 70
2020-03-25 04:00:00 17.2 8 Noroeste 18 Norte 0 -- -- 70
2020-03-25 03:00:00 17 10 Noroeste 18 Oeste 0 -- -- 69
2020-03-25 02:00:00 17.2 10 Noroeste 17 Noroeste 0 -- -- 69
2020-03-25 01:00:00 17.5 8 Noroeste 20 Norte 0 -- -- 68
2020-03-25 00:00:00 17.6 11 Norte 21 Norte 0 -- -- 68
2020-03-24 23:00:00 17 9 Noroeste 19 Noroeste 0 -- -- 70
2020-03-24 22:00:00 17.4 14 Noroeste 24 Norte 0 -- -- 69
2020-03-24 21:00:00 18 13 Norte 26 Norte 0 -- -- 68
2020-03-24 20:00:00 18.2 10 Noroeste 28 Norte 0 -- -- 68
2020-03-24 19:00:00 18.8 15 Noroeste 32 Norte 0 -- -- 66
2020-03-24 18:00:00 19.3 19 Noroeste 32 Noroeste 0 -- -- 60
2020-03-24 17:00:00 20.4 22 Noroeste 36 Noroeste 0 -- -- 57
2020-03-24 16:00:00 21.5 20 Noroeste 36 Noroeste 0 -- -- 52
2020-03-24 15:00:00 21.4 22 Norte 43 Norte 0 -- -- 52
2020-03-24 14:00:00 22.2 21 Norte 43 Norte 0 -- -- 47
2020-03-24 13:00:00 22.1 20 Norte 39 Norte 0 -- -- 47
2020-03-24 12:00:00 21 24 Norte 45 Noroeste 0 -- -- 53
2020-03-24 11:00:00 20.5 23 Norte 40 Norte 0 -- -- 56
2020-03-24 10:00:00 19 22 Norte 38 Norte 0 -- -- 64
2020-03-24 09:00:00 17.5 11 Noroeste 25 Noroeste 0 -- -- 74
2020-03-24 08:00:00 16.4 11 Noroeste 26 Noroeste 0 -- -- 75
2020-03-24 07:00:00 15.7 12 Noroeste 27 Noroeste 0 -- -- 73
2020-03-24 06:00:00 15.9 9 Noroeste 22 Noroeste 0 -- -- 77
2020-03-24 05:00:00 15.9 11 Noroeste 24 Norte 1.2 -- -- 81
2020-03-24 04:00:00 16.5 14 Noroeste 28 Noroeste 0.2 -- -- 78
2020-03-24 03:00:00 16.7 13 Noroeste 28 Noroeste 0 -- -- 71
2020-03-24 02:00:00 16.5 11 Noroeste 28 Noroeste 0 -- -- 73
2020-03-24 01:00:00 16.7 15 Noroeste 35 Noroeste 0 -- -- 72
2020-03-24 00:00:00 16.6 17 Noroeste 32 Norte 0.2 -- -- 76
2020-03-23 23:00:00 16.7 10 Noroeste 27 Noroeste 0 -- -- 71
2020-03-23 22:00:00 16.6 14 Noroeste 39 Norte 0 -- -- 71
2020-03-23 21:00:00 16.7 19 Norte 41 Norte 0.4 -- -- 73
2020-03-23 20:00:00 17.6 23 Noroeste 43 Noroeste 0 -- -- 65
2020-03-23 19:00:00 17.8 24 Noroeste 45 Noroeste 0 -- -- 62
2020-03-23 18:00:00 18.5 22 Norte 46 Noroeste 0 -- -- 62
2020-03-23 17:00:00 18.6 27 Norte 44 Norte 0 -- -- 61
2020-03-23 16:00:00 19.5 21 Norte 43 Norte 0 -- -- 59
2020-03-23 15:00:00 18.9 21 Norte 49 Noroeste 0.2 -- -- 65
2020-03-23 14:00:00 19.8 24 Norte 52 Norte 0 -- -- 58
2020-03-23 13:00:00 18.8 28 Norte 50 Noroeste 0.4 -- -- 65
2020-03-23 12:00:00 18.4 26 Norte 43 Norte 0.2 -- -- 60
2020-03-23 11:00:00 17.4 24 Norte 49 Norte 0 -- -- 66
2020-03-23 10:00:00 17.1 23 Norte 44 Noroeste 0 -- -- 66
2020-03-23 09:00:00 15 20 Noroeste 43 Noroeste 0.8 -- -- 74
2020-03-23 08:00:00 15 27 Noroeste 58 Noroeste 0.2 -- -- 69
2020-03-23 07:00:00 13.8 30 Noroeste 58 Noroeste 5.6 -- -- 75
2020-03-23 06:00:00 14.5 28 Noroeste 49 Noroeste 0.2 -- -- 70
2020-03-23 05:00:00 15.3 15 Noroeste 41 Oeste 0 -- -- 57
2020-03-23 04:00:00 16.1 10 Noroeste 27 Noroeste 0 -- -- 55
2020-03-23 03:00:00 15.3 5 Norte 24 Noroeste 0 -- -- 62
2020-03-23 02:00:00 15.5 11 Noroeste 26 Noroeste 0 -- -- 65
2020-03-23 01:00:00 15.8 10 Norte 28 Norte 0 -- -- 68
2020-03-23 00:00:00 16.7 14 Noroeste 24 Noroeste 0 -- -- 56
2020-03-22 23:00:00 16.8 11 Noroeste 27 Oeste 0 -- -- 60
2020-03-22 22:00:00 16.8 14 Noroeste 23 Noroeste 0 -- -- 56
2020-03-22 21:00:00 16.5 5 Noroeste 24 Noroeste 0 -- -- 61
2020-03-22 20:00:00 16 17 Noroeste 45 Noroeste 0 -- -- 67
2020-03-22 19:00:00 15.8 18 Noroeste 39 Norte 0.2 -- -- 79
2020-03-22 18:00:00 18.6 5 Este 14 Sudeste 0 -- -- 70
2020-03-22 17:00:00 19.4 6 Sudeste 18 Este 0 -- -- 67
2020-03-22 16:00:00 20.1 8 Este 15 Sudeste 0 -- -- 58
2020-03-22 15:00:00 19.8 5 Sudeste 15 Este 0 -- -- 55
2020-03-22 14:00:00 20.5 7 Este 23 Sur 0 -- -- 53
2020-03-22 13:00:00 19.8 11 Sur 32 Noroeste 0 -- -- 57
2020-03-22 12:00:00 20.6 18 Noroeste 36 Noroeste 0 -- -- 45
2020-03-22 11:00:00 18.1 18 Norte 32 Norte 0 -- -- 64
2020-03-22 10:00:00 16.7 11 Norte 30 Oeste 0.2 -- -- 71
2020-03-22 09:00:00 17.4 11 Noroeste 24 Noroeste 0 -- -- 60
2020-03-22 08:00:00 16 13 Noroeste 23 Noroeste 0 -- -- 62
2020-03-22 07:00:00 16.3 14 Noroeste 31 Noroeste 0 -- -- 63
2020-03-22 06:00:00 15.8 11 Noroeste 20 Noroeste 0 -- -- 71
2020-03-22 05:00:00 16 9 Noroeste 31 Noroeste 0 -- -- 65
2020-03-22 04:00:00 16.3 19 Noroeste 34 Noroeste 0 -- -- 65
2020-03-22 03:00:00 16.1 9 Noroeste 17 Oeste 0 -- -- 62
2020-03-22 02:00:00 16.2 12 Oeste 20 Noroeste 0 -- -- 60
2020-03-22 01:00:00 16.5 10 Noroeste 26 Norte 0 -- -- 68
2020-03-22 00:00:00 16.4 14 Norte 26 Noroeste 0 -- -- 70
2020-03-21 23:00:00 16.4 11 Noroeste 34 Norte 0 -- -- 70
2020-03-21 22:00:00 16.1 14 Norte 28 Noroeste 0 -- -- 77
2020-03-21 21:00:00 16.5 17 Noroeste 33 Oeste 0 -- -- 64
2020-03-21 20:00:00 16.8 18 Noroeste 32 Noroeste 0 -- -- 61
2020-03-21 19:00:00 17.8 14 Noroeste 30 Noroeste 0 -- -- 52
2020-03-21 18:00:00 18.4 17 Norte 30 Norte 0 -- -- 49
2020-03-21 17:00:00 18.8 21 Norte 33 Norte 0 -- -- 51
2020-03-21 16:00:00 18.8 19 Norte 38 Norte 0 -- -- 53
2020-03-21 15:00:00 19.3 19 Norte 36 Norte 0 -- -- 53
2020-03-21 14:00:00 19.2 19 Norte 35 Nordeste 0 -- -- 56
2020-03-21 13:00:00 18.9 19 Norte 36 Norte 0 -- -- 54
2020-03-21 12:00:00 20.1 18 Norte 30 Noroeste 0 -- -- 41
2020-03-21 11:00:00 18.8 15 Norte 28 Norte 0 -- -- 49
2020-03-21 10:00:00 17.7 14 Noroeste 29 Norte 0 -- -- 54
2020-03-21 09:00:00 16.8 14 Norte 29 Norte 0 -- -- 57
2020-03-21 08:00:00 16.9 17 Norte 35 Norte 0 -- -- 53
2020-03-21 07:00:00 17 17 Norte 32 Norte 0 -- -- 55
2020-03-21 06:00:00 17.1 14 Norte 27 Norte 0 -- -- 57
2020-03-21 05:00:00 17.3 15 Norte 31 Noroeste 0 -- -- 55
2020-03-21 04:00:00 17.1 16 Norte 30 Norte 0 -- -- 63
2020-03-21 03:00:00 17.1 15 Norte 33 Norte 0 -- -- 59
2020-03-21 02:00:00 17.2 15 Norte 32 Norte 0 -- -- 60
2020-03-21 01:00:00 17.6 17 Norte 33 Norte 0 -- -- 67
2020-03-21 00:00:00 17.7 17 Norte 36 Norte 0 -- -- 72
2020-03-20 23:00:00 17.7 17 Norte 36 Norte 0 -- -- 74
2020-03-20 22:00:00 17.7 19 Norte 36 Norte 0 -- -- 74
2020-03-20 21:00:00 17.2 14 Norte 37 Norte 0.2 -- -- 79
2020-03-20 20:00:00 17.6 19 Norte 34 Norte 0 -- -- 76
2020-03-20 19:00:00 18.5 18 Norte 31 Norte 0 -- -- 70
2020-03-20 18:00:00 19.4 16 Norte 31 Noroeste 0 -- -- 63
2020-03-20 17:00:00 20.6 17 Norte 35 Noroeste 0 -- -- 55
2020-03-20 16:00:00 21 19 Norte 37 Norte 0 -- -- 54
2020-03-20 15:00:00 21.2 21 Norte 38 Norte 0 -- -- 53
2020-03-20 14:00:00 21.3 22 Norte 36 Norte 0 -- -- 53
2020-03-20 13:00:00 20.6 22 Norte 38 Norte 0 -- -- 59
2020-03-20 12:00:00 21.3 21 Norte 36 Norte 0 -- -- 55
2020-03-20 11:00:00 18.9 18 Norte 32 Norte 0 -- -- 65
2020-03-20 10:00:00 19 18 Noroeste 37 Norte 0 -- -- 62
2020-03-20 09:00:00 19 18 Norte 34 Norte 0 -- -- 61
2020-03-20 08:00:00 18 15 Norte 32 Norte 0 -- -- 71
2020-03-20 07:00:00 18.2 13 Norte 36 Noroeste 0 -- -- 67
2020-03-20 06:00:00 18.1 20 Norte 36 Noroeste 0 -- -- 70
2020-03-20 05:00:00 17.9 18 Norte 34 Noroeste 0 -- -- 73
2020-03-20 04:00:00 18 18 Norte 31 Norte 0 -- -- 76
2020-03-20 03:00:00 17.7 12 Noroeste 31 Norte 0 -- -- 75
2020-03-20 02:00:00 17.9 17 Norte 32 Norte 0 -- -- 73
2020-03-20 01:00:00 18.1 18 Norte 39 Norte 0 -- -- 75
2020-03-20 00:00:00 18.1 22 Noroeste 42 Norte 0 -- -- 73
2020-03-19 23:00:00 18.2 21 Norte 37 Norte 0 -- -- 73
2020-03-19 22:00:00 18.5 23 Norte 42 Norte 0 -- -- 73
2020-03-19 21:00:00 18.7 22 Norte 37 Norte 0 -- -- 72
2020-03-19 20:00:00 18.8 20 Norte 36 Norte 0 -- -- 74
2020-03-19 19:00:00 19 18 Norte 37 Norte 0 -- -- 70
2020-03-19 18:00:00 19.7 21 Norte 39 Noroeste 0 -- -- 66
2020-03-19 17:00:00 20.4 20 Norte 41 Norte 0 -- -- 61
2020-03-19 16:00:00 21.1 22 Noroeste 40 Noroeste 0 -- -- 56
2020-03-19 15:00:00 21.4 22 Norte 42 Norte 0 -- -- 51
2020-03-19 14:00:00 21.7 22 Norte 44 Norte 0 -- -- 48
2020-03-19 13:00:00 21.3 26 Norte 49 Norte 0 -- -- 51
2020-03-19 12:00:00 20.8 31 Norte 47 Norte 0 -- -- 53
2020-03-19 11:00:00 19.5 26 Norte 48 Norte 0.2 -- -- 73
2020-03-19 10:00:00 20 26 Noroeste 46 Noroeste 0 -- -- 68
2020-03-19 09:00:00 19.3 21 Noroeste 42 Noroeste 0 -- -- 72
2020-03-19 08:00:00 17.8 24 Noroeste 41 Noroeste 0 -- -- 75
2020-03-19 07:00:00 17.2 22 Noroeste 45 Noroeste 0 -- -- 76
2020-03-19 06:00:00 17.4 24 Noroeste 43 Noroeste 0 -- -- 71
2020-03-19 05:00:00 17.4 22 Noroeste 42 Noroeste 0 -- -- 67
2020-03-19 04:00:00 17.2 21 Noroeste 47 Noroeste 0 -- -- 67
2020-03-19 03:00:00 17.2 26 Noroeste 46 Noroeste 0 -- -- 70
2020-03-19 02:00:00 17.2 21 Noroeste 45 Noroeste 0.2 -- -- 72
2020-03-19 01:00:00 17.8 25 Noroeste 46 Noroeste 0 -- -- 65
2020-03-19 00:00:00 17.9 23 Noroeste 44 Noroeste 0 -- -- 59
2020-03-18 23:00:00 17.5 21 Noroeste 41 Noroeste 0 -- -- 56
2020-03-18 22:00:00 17.5 21 Noroeste 42 Noroeste 0 -- -- 58
2020-03-18 21:00:00 17.7 20 Noroeste 45 Noroeste 0 -- -- 64
2020-03-18 20:00:00 17.7 21 Noroeste 46 Norte 0 -- -- 67
2020-03-18 19:00:00 18 21 Norte 44 Noroeste 0 -- -- 63
2020-03-18 18:00:00 19.3 21 Noroeste 50 Noroeste 0 -- -- 54
2020-03-18 17:00:00 19.2 27 Norte 46 Norte 0 -- -- 56
2020-03-18 16:00:00 20.5 23 Norte 47 Norte 0 -- -- 49
2020-03-18 15:00:00 20.5 23 Norte 44 Norte 0 -- -- 48
2020-03-18 14:00:00 20.8 24 Norte 42 Norte 0 -- -- 46
2020-03-18 13:00:00 20.8 22 Norte 39 Noroeste 0 -- -- 41
2020-03-18 12:00:00 20.1 22 Norte 43 Norte 0 -- -- 52
2020-03-18 11:00:00 19.3 22 Norte 39 Norte 0 -- -- 49
2020-03-18 10:00:00 19 23 Norte 38 Noroeste 0 -- -- 52
2020-03-18 09:00:00 17.1 18 Noroeste 33 Noroeste 0 -- -- 61
2020-03-18 08:00:00 15.9 18 Noroeste 30 Noroeste 0 -- -- 66
2020-03-18 07:00:00 15.6 14 Noroeste 38 Noroeste 0 -- -- 68
2020-03-18 06:00:00 15.4 14 Noroeste 31 Noroeste 0 -- -- 72
2020-03-18 05:00:00 14.7 20 Noroeste 38 Norte 0 -- -- 74
2020-03-18 04:00:00 15.9 14 Norte 43 Norte 0 -- -- 71
2020-03-18 03:00:00 14.9 17 Noroeste 38 Noroeste 0 -- -- 73
2020-03-18 02:00:00 16 16 Norte 34 Norte 0 -- -- 70
2020-03-18 01:00:00 15.3 14 Noroeste 47 Norte 0.4 -- -- 76
2020-03-18 00:00:00 16 15 Noroeste 33 Noroeste 0 -- -- 71
2020-03-17 23:00:00 16.8 20 Norte 37 Norte 0 -- -- 68
2020-03-17 22:00:00 16.6 18 Noroeste 44 Norte 0 -- -- 64
2020-03-17 21:00:00 16.7 20 Norte 46 Norte 0 -- -- 73
2020-03-17 20:00:00 17.1 17 Noroeste 33 Norte 0 -- -- 63
2020-03-17 19:00:00 16.8 23 Norte 40 Norte 0 -- -- 66
2020-03-17 18:00:00 18.3 19 Norte 33 Norte 0 -- -- 59
2020-03-17 17:00:00 18.3 20 Norte 36 Norte 0 -- -- 60
2020-03-17 16:00:00 18.8 19 Norte 36 Norte 0 -- -- 60
2020-03-17 15:00:00 19 19 Norte 36 Norte 0 -- -- 60
2020-03-17 14:00:00 17.8 22 Norte 41 Norte 0 -- -- 66
2020-03-17 13:00:00 18.3 19 Norte 39 Nordeste 0 -- -- 65
2020-03-17 12:00:00 18.7 20 Norte 37 Noroeste 0.2 -- -- 59
2020-03-17 11:00:00 16.7 13 Norte 38 Norte 0 -- -- 69
2020-03-17 10:00:00 16.7 18 Norte 38 Norte 0 -- -- 67
2020-03-17 09:00:00 16.6 17 Norte 31 Norte 0 -- -- 57
2020-03-17 08:00:00 16.1 15 Noroeste 33 Noroeste 0 -- -- 64
2020-03-17 07:00:00 16 16 Norte 37 Noroeste 0 -- -- 64
2020-03-17 06:00:00 15.6 17 Norte 35 Norte 0 -- -- 70
2020-03-17 05:00:00 14.6 16 Noroeste 40 Norte 0.2 -- -- 76
2020-03-17 04:00:00 15.4 16 Norte 41 Norte 0 -- -- 74
2020-03-17 03:00:00 16.3 21 Norte 37 Norte 0 -- -- 69
2020-03-17 02:00:00 16.9 19 Norte 38 Norte 0 -- -- 57
2020-03-17 01:00:00 17 21 Norte 40 Norte 0 -- -- 54
2020-03-17 00:00:00 17.1 19 Norte 44 Norte 0 -- -- 62
2020-03-16 23:00:00 17.1 22 Norte 45 Norte 0.2 -- -- 68
2020-03-16 22:00:00 17 27 Norte 42 Norte 0 -- -- 74
2020-03-16 21:00:00 17.7 21 Norte 41 Norte 0 -- -- 69
2020-03-16 20:00:00 17.7 20 Norte 49 Norte 0 -- -- 71
2020-03-16 19:00:00 17.7 19 Norte 39 Noroeste 0 -- -- 74
2020-03-16 18:00:00 18.7 22 Norte 40 Noroeste 0 -- -- 72
2020-03-16 17:00:00 18.6 21 Norte 38 Norte 0 -- -- 73
2020-03-16 16:00:00 20.8 21 Norte 37 Norte 0 -- -- 56
2020-03-16 15:00:00 21.1 24 Norte 42 Norte 0 -- -- 53
2020-03-16 14:00:00 21.3 22 Norte 43 Norte 0 -- -- 51
2020-03-16 13:00:00 21.3 23 Norte 41 Norte 0 -- -- 49
2020-03-16 12:00:00 20.8 24 Norte 40 Noroeste 0 -- -- 50
2020-03-16 11:00:00 20.6 21 Norte 42 Norte 0 -- -- 49
2020-03-16 10:00:00 19.8 21 Norte 42 Norte 0 -- -- 56
2020-03-16 09:00:00 17.7 21 Norte 41 Norte 0 -- -- 70
2020-03-16 08:00:00 17.8 21 Norte 40 Norte 0 -- -- 67
2020-03-16 07:00:00 17.5 23 Norte 41 Norte 0 -- -- 67
2020-03-16 06:00:00 17.5 18 Norte 42 Norte 0 -- -- 69
2020-03-16 05:00:00 17.5 21 Norte 37 Norte 0 -- -- 69
2020-03-16 04:00:00 17.7 19 Norte 36 Norte 0 -- -- 71
2020-03-16 03:00:00 17.9 14 Norte 29 Norte 0 -- -- 77
2020-03-16 02:00:00 17.7 16 Norte 30 Norte 0.2 -- -- 74
2020-03-16 01:00:00 17.6 18 Norte 31 Noroeste 0.2 -- -- 77
2020-03-16 00:00:00 18.1 19 Norte 37 Norte 0 -- -- 70
2020-03-15 23:00:00 18.1 20 Norte 36 Norte 0 -- -- 65
2020-03-15 22:00:00 18.3 14 Norte 35 Norte 0 -- -- 69
2020-03-15 21:00:00 18.2 19 Norte 36 Norte 0 -- -- 64
2020-03-15 20:00:00 18.2 18 Norte 36 Norte 0 -- -- 64
2020-03-15 19:00:00 17.8 19 Norte 42 Norte 0 -- -- 69
2020-03-15 18:00:00 18.8 24 Norte 38 Norte 0 -- -- 63
2020-03-15 17:00:00 18.8 21 Norte 36 Norte 0.2 -- -- 67
2020-03-15 16:00:00 19.6 20 Norte 34 Norte 0 -- -- 67
2020-03-15 15:00:00 21.3 18 Norte 33 Noroeste 0 -- -- 53
2020-03-15 14:00:00 21.2 18 Norte 33 Norte 0 -- -- 49
2020-03-15 13:00:00 20 19 Norte 33 Norte 0 -- -- 58
2020-03-15 12:00:00 20.2 16 Norte 32 Noroeste 0 -- -- 56
2020-03-15 11:00:00 19.3 19 Norte 33 Norte 0 -- -- 59
2020-03-15 10:00:00 17.8 19 Norte 30 Norte 0 -- -- 64
2020-03-15 09:00:00 16.3 20 Norte 37 Norte 0 -- -- 75
2020-03-15 08:00:00 17.4 13 Noroeste 28 Norte 0 -- -- 64
2020-03-15 07:00:00 17.2 18 Norte 28 Norte 0 -- -- 68
2020-03-15 06:00:00 17.2 15 Norte 33 Norte 0 -- -- 69
2020-03-15 05:00:00 16.5 13 Noroeste 31 Norte 0 -- -- 69
2020-03-15 04:00:00 17.2 16 Norte 30 Noroeste 0 -- -- 72
2020-03-15 03:00:00 17.3 14 Norte 31 Noroeste 0 -- -- 64
2020-03-15 02:00:00 17.5 17 Norte 32 Norte 0 -- -- 69
2020-03-15 01:00:00 16.9 10 Noroeste 19 Noroeste 0 -- -- 68
2020-03-15 00:00:00 16.9 12 Noroeste 23 Noroeste 0 -- -- 66
2020-03-14 23:00:00 16.9 17 Noroeste 25 Noroeste 0 -- -- 65
2020-03-14 22:00:00 17.3 12 Noroeste 26 Norte 0 -- -- 63
2020-03-14 21:00:00 17.7 15 Norte 26 Norte 0 -- -- 62
2020-03-14 20:00:00 17.7 11 Noroeste 30 Norte 0 -- -- 61
2020-03-14 19:00:00 18.4 15 Norte 29 Norte 0 -- -- 60
2020-03-14 18:00:00 19.3 14 Norte 31 Norte 0 -- -- 57
2020-03-14 17:00:00 19.6 15 Norte 30 Norte 0 -- -- 55
2020-03-14 16:00:00 20 19 Norte 32 Nordeste 0 -- -- 53
2020-03-14 15:00:00 19.8 18 Norte 31 Nordeste 0 -- -- 54
2020-03-14 14:00:00 20.4 17 Norte 30 Norte 0 -- -- 55
2020-03-14 13:00:00 20.5 17 Norte 32 Norte 0 -- -- 59
2020-03-14 12:00:00 20.6 19 Nordeste 30 Nordeste 0 -- -- 62
2020-03-14 11:00:00 20 17 Nordeste 26 Norte 0 -- -- 62
2020-03-14 10:00:00 19.5 15 Norte 28 Noroeste 0 -- -- 65
2020-03-14 09:00:00 18.9 18 Norte 31 Norte 0 -- -- 66
2020-03-14 08:00:00 17.7 18 Norte 29 Norte 0 -- -- 69
2020-03-14 07:00:00 17.8 17 Norte 30 Norte 0 -- -- 67
2020-03-14 06:00:00 18.1 13 Norte 26 Norte 0 -- -- 72
2020-03-14 05:00:00 17.7 12 Norte 24 Noroeste 0 -- -- 74
2020-03-14 04:00:00 18 13 Norte 28 Norte 0 -- -- 72
2020-03-14 03:00:00 18.2 14 Norte 31 Norte 0 -- -- 71
2020-03-14 02:00:00 18.2 13 Norte 28 Norte 0 -- -- 74
2020-03-14 01:00:00 18.4 13 Norte 32 Norte 0 -- -- 74
2020-03-14 00:00:00 18.5 12 Norte 28 Norte 0 -- -- 74
2020-03-13 23:00:00 18.2 15 Norte 30 Norte 0 -- -- 73
2020-03-13 22:00:00 18.5 19 Norte 31 Noroeste 0 -- -- 71
2020-03-13 21:00:00 18.5 20 Norte 31 Norte 0 -- -- 71
2020-03-13 20:00:00 18.7 17 Norte 32 Norte 0 -- -- 71
2020-03-13 19:00:00 18.8 16 Norte 30 Norte 0 -- -- 72
2020-03-13 18:00:00 19.4 18 Norte 32 Norte 0 -- -- 69
2020-03-13 17:00:00 19.9 17 Norte 33 Norte 0 -- -- 65
2020-03-13 16:00:00 20.7 19 Norte 35 Noroeste 0 -- -- 66
2020-03-13 15:00:00 20.7 19 Norte 31 Norte 0 -- -- 62
2020-03-13 14:00:00 20.9 18 Norte 29 Norte 0 -- -- 61
2020-03-13 13:00:00 20.7 15 Norte 33 Norte 0 -- -- 62
2020-03-13 12:00:00 20.7 16 Norte 31 Norte 0 -- -- 63
2020-03-13 11:00:00 19.4 17 Norte 30 Norte 0 -- -- 66
2020-03-13 10:00:00 18.8 19 Norte 30 Norte 0 -- -- 68
2020-03-13 09:00:00 18.4 17 Norte 32 Norte 0 -- -- 71
2020-03-13 08:00:00 18.1 14 Norte 29 Norte 0 -- -- 72
2020-03-13 07:00:00 18 18 Norte 31 Norte 0 -- -- 72
2020-03-13 06:00:00 18.1 17 Norte 31 Norte 0 -- -- 74
2020-03-13 05:00:00 18.1 17 Norte 34 Norte 0 -- -- 74
2020-03-13 04:00:00 18.1 18 Norte 30 Norte 0 -- -- 74
2020-03-13 03:00:00 18.1 19 Norte 32 Noroeste 0 -- -- 76
2020-03-13 02:00:00 18 19 Norte 32 Norte 0 -- -- 78
2020-03-13 01:00:00 18 17 Norte 31 Norte 0 -- -- 79
2020-03-13 00:00:00 17.9 13 Noroeste 26 Norte 0 -- -- 81
2020-03-12 23:00:00 18.2 13 Norte 27 Norte 0 -- -- 81
2020-03-12 22:00:00 18.6 12 Norte 25 Norte 0 -- -- 82
2020-03-12 21:00:00 18.8 15 Norte 24 Noroeste 0 -- -- 82
2020-03-12 20:00:00 19.1 13 Norte 23 Norte 0 -- -- 83
2020-03-12 19:00:00 19.4 12 Norte 26 Nordeste 0 -- -- 81
2020-03-12 18:00:00 20 16 Norte 29 Norte 0 -- -- 80
2020-03-12 17:00:00 20.8 17 Norte 27 Nordeste 0 -- -- 77
2020-03-12 16:00:00 21.2 17 Norte 27 Norte 0 -- -- 77
2020-03-12 15:00:00 21.3 18 Nordeste 26 Nordeste 0 -- -- 75
2020-03-12 14:00:00 22 12 Nordeste 17 Nordeste 0 -- -- 71
2020-03-12 13:00:00 21.3 12 Nordeste 21 Norte 0 -- -- 76
2020-03-12 12:00:00 21.2 13 Norte 21 Nordeste 0 -- -- 74
2020-03-12 11:00:00 21.2 14 Norte 20 Norte 0 -- -- 73
2020-03-12 10:00:00 20.6 9 Norte 19 Norte 0 -- -- 78
2020-03-12 09:00:00 19 14 Norte 23 Noroeste 0 -- -- 83
2020-03-12 08:00:00 17.1 10 Noroeste 20 Norte 0 -- -- 88
2020-03-12 07:00:00 17.4 14 Norte 27 Norte 0 -- -- 87
2020-03-12 06:00:00 17.3 14 Norte 22 Norte 0 -- -- 88
2020-03-12 05:00:00 16.1 8 Noroeste 14 Noroeste 0 -- -- 65
2020-03-12 04:00:00 15.8 8 Noroeste 18 Oeste 0 -- -- 53
2020-03-12 03:00:00 16.3 10 Noroeste 19 Noroeste 0 -- -- 85
2020-03-12 02:00:00 17.1 9 Noroeste 17 Noroeste 0 -- -- 87
2020-03-12 01:00:00 16.9 6 Noroeste 23 Norte 0 -- -- 85
2020-03-12 00:00:00 18.1 12 Noroeste 22 Norte 0 -- -- 85
2020-03-11 23:00:00 18.4 9 Norte 24 Norte 0 -- -- 88
2020-03-11 22:00:00 18.3 10 Norte 23 Noroeste 0 -- -- 88
2020-03-11 21:00:00 18.6 8 Noroeste 18 Norte 0 -- -- 86
2020-03-11 20:00:00 18.9 10 Norte 19 Norte 0 -- -- 84
2020-03-11 19:00:00 19.3 9 Norte 16 Norte 0 -- -- 82
2020-03-11 18:00:00 20.1 8 Norte 17 Norte 0 -- -- 76
2020-03-11 17:00:00 20.5 11 Nordeste 18 Nordeste 0 -- -- 76
2020-03-11 16:00:00 21.7 9 Nordeste 14 Este 0 -- -- 63
2020-03-11 15:00:00 21.8 10 Este 18 Nordeste 0 -- -- 70
2020-03-11 14:00:00 22.5 12 Nordeste 18 Nordeste 0 -- -- 64
2020-03-11 13:00:00 21.8 10 Nordeste 15 Nordeste 0 -- -- 66
2020-03-11 12:00:00 21.3 10 Nordeste 17 Norte 0 -- -- 70
2020-03-11 11:00:00 19.1 8 Norte 15 Norte 0 -- -- 76
2020-03-11 10:00:00 18.4 6 Norte 12 Norte 0 -- -- 79
2020-03-11 09:00:00 18.2 7 Norte 13 Noroeste 0 -- -- 79
2020-03-11 08:00:00 15.3 7 Noroeste 12 Noroeste 0 -- -- 85
2020-03-11 07:00:00 14.5 8 Noroeste 13 Oeste 0 -- -- 84
2020-03-11 06:00:00 15.4 7 Noroeste 14 Oeste 0 -- -- 81
2020-03-11 05:00:00 16.6 7 Norte 13 Noroeste 0 -- -- 83
2020-03-11 04:00:00 16.5 6 Noroeste 21 Norte 0 -- -- 83
2020-03-11 03:00:00 17.2 12 Norte 26 Norte 0 -- -- 83
2020-03-11 02:00:00 17.2 14 Norte 26 Norte 0 -- -- 83
2020-03-11 01:00:00 17.5 13 Norte 28 Norte 0 -- -- 82
2020-03-11 00:00:00 17.7 18 Norte 28 Norte 0 -- -- 81
2020-03-10 23:00:00 18 14 Norte 26 Norte 0 -- -- 79
2020-03-10 22:00:00 18.3 11 Norte 22 Norte 0 -- -- 80
2020-03-10 21:00:00 18.3 10 Norte 19 Norte 0 -- -- 82
2020-03-10 20:00:00 18.6 9 Norte 21 Norte 0 -- -- 80
2020-03-10 19:00:00 19.1 10 Norte 22 Norte 0 -- -- 77
2020-03-10 18:00:00 20 13 Norte 26 Norte 0 -- -- 74
2020-03-10 17:00:00 20.5 17 Norte 28 Norte 0 -- -- 72
2020-03-10 16:00:00 21 19 Norte 28 Nordeste 0 -- -- 70
2020-03-10 15:00:00 21.2 18 Norte 30 Norte 0 -- -- 68
2020-03-10 14:00:00 21.5 16 Norte 25 Nordeste 0 -- -- 66
2020-03-10 13:00:00 21.1 11 Nordeste 18 Norte 0 -- -- 68
2020-03-10 12:00:00 21.1 12 Nordeste 19 Norte 0 -- -- 69
2020-03-10 11:00:00 20.2 12 Norte 21 Nordeste 0 -- -- 71
2020-03-10 10:00:00 19.3 15 Nordeste 23 Norte 0 -- -- 76
2020-03-10 09:00:00 18.9 12 Norte 21 Norte 0 -- -- 75
2020-03-10 08:00:00 16.7 10 Norte 18 Norte 0 -- -- 83
2020-03-10 07:00:00 16 10 Norte 22 Noroeste 0 -- -- 80
2020-03-10 06:00:00 16.6 11 Norte 21 Noroeste 0 -- -- 85
2020-03-10 05:00:00 16.8 11 Norte 23 Norte 0 -- -- 84
2020-03-10 04:00:00 17.3 14 Norte 28 Norte 0 -- -- 84
2020-03-10 03:00:00 17.5 18 Norte 28 Norte 0 -- -- 84
2020-03-10 02:00:00 17.7 14 Norte 23 Norte 0 -- -- 82
2020-03-10 01:00:00 18.1 14 Norte 27 Norte 0 -- -- 79
2020-03-10 00:00:00 18.1 11 Norte 18 Norte 0 -- -- 70
2020-03-09 23:00:00 17.8 12 Noroeste 24 Norte 0 -- -- 77
2020-03-09 22:00:00 18.3 17 Norte 27 Norte 0 -- -- 81
2020-03-09 21:00:00 18.6 15 Norte 26 Norte 0 -- -- 82
2020-03-09 20:00:00 18.8 15 Norte 26 Norte 0 -- -- 81
2020-03-09 19:00:00 19.4 15 Norte 26 Norte 0 -- -- 81
2020-03-09 18:00:00 20.3 15 Norte 27 Norte 0 -- -- 78
2020-03-09 17:00:00 21 15 Norte 27 Norte 0 -- -- 75
2020-03-09 16:00:00 21.4 16 Norte 27 Nordeste 0 -- -- 74
2020-03-09 15:00:00 21.6 17 Norte 26 Norte 0 -- -- 73
2020-03-09 14:00:00 21.7 14 Norte 22 Norte 0 -- -- 69
2020-03-09 13:00:00 21.8 13 Norte 25 Nordeste 0 -- -- 66
2020-03-09 12:00:00 21.4 15 Norte 23 Norte 0 -- -- 69
2020-03-09 11:00:00 21.3 12 Norte 24 Norte 0 -- -- 65
2020-03-09 10:00:00 20.3 15 Norte 28 Norte 0 -- -- 73
2020-03-09 09:00:00 19.1 16 Norte 30 Norte 0 -- -- 76
2020-03-09 08:00:00 18 14 Norte 26 Norte 0 -- -- 71
2020-03-09 07:00:00 17.1 9 Norte 16 Norte 0 -- -- 76
2020-03-09 06:00:00 17.1 9 Noroeste 18 Noroeste 0 -- -- 75
2020-03-09 05:00:00 17.2 13 Noroeste 21 Noroeste 0 -- -- 79
2020-03-09 04:00:00 17.5 12 Noroeste 22 Noroeste 0 -- -- 79
2020-03-09 03:00:00 17.8 13 Noroeste 28 Noroeste 0 -- -- 77
2020-03-09 02:00:00 17.8 13 Noroeste 24 Noroeste 0 -- -- 77
2020-03-09 01:00:00 17.8 10 Noroeste 28 Noroeste 0 -- -- 78
2020-03-09 00:00:00 18.3 16 Norte 31 Noroeste 0 -- -- 80
2020-03-08 23:00:00 18.3 12 Noroeste 23 Noroeste 0 -- -- 78
2020-03-08 22:00:00 18.5 11 Norte 27 Norte 0 -- -- 82
2020-03-08 21:00:00 18.7 16 Norte 32 Norte 0 -- -- 82
2020-03-08 20:00:00 18.9 18 Norte 38 Norte 0 -- -- 83
2020-03-08 19:00:00 19.2 18 Norte 30 Noroeste 0 -- -- 82
2020-03-08 18:00:00 20 18 Norte 30 Norte 0 -- -- 79
2020-03-08 17:00:00 20.7 17 Norte 32 Norte 0 -- -- 75
2020-03-08 16:00:00 21.3 18 Norte 30 Noroeste 0 -- -- 71
2020-03-08 15:00:00 21.9 14 Norte 30 Norte 0 -- -- 69
2020-03-08 14:00:00 21.3 18 Norte 34 Norte 0 -- -- 68
2020-03-08 13:00:00 21.3 21 Norte 35 Norte 0 -- -- 69
2020-03-08 12:00:00 21.8 18 Norte 33 Norte 0 -- -- 66
2020-03-08 11:00:00 20.9 19 Norte 31 Norte 0 -- -- 68
2020-03-08 10:00:00 20.2 18 Norte 33 Noroeste 0 -- -- 69
2020-03-08 09:00:00 19 15 Norte 32 Norte 0 -- -- 72
2020-03-08 08:00:00 17.5 12 Noroeste 25 Noroeste 0 -- -- 76
2020-03-08 07:00:00 17.1 12 Noroeste 25 Noroeste 0 -- -- 77
2020-03-08 06:00:00 17.1 13 Noroeste 24 Noroeste 0 -- -- 76
2020-03-08 05:00:00 17.1 11 Noroeste 25 Norte 0 -- -- 76
2020-03-08 04:00:00 17.7 15 Noroeste 30 Noroeste 0 -- -- 73
2020-03-08 03:00:00 18.1 17 Norte 37 Norte 0 -- -- 72
2020-03-08 02:00:00 18.2 18 Norte 40 Norte 0 -- -- 72
2020-03-08 01:00:00 18.3 19 Norte 37 Noroeste 0 -- -- 70
2020-03-08 00:00:00 18 22 Norte 39 Norte 0 -- -- 70
2020-03-07 23:00:00 18.3 21 Norte 36 Norte 0 -- -- 71
2020-03-07 22:00:00 18.4 19 Norte 37 Norte 0 -- -- 68
2020-03-07 21:00:00 18.3 19 Norte 37 Norte 0 -- -- 69
2020-03-07 20:00:00 18.4 21 Norte 41 Norte 0 -- -- 69
2020-03-07 19:00:00 18.6 24 Norte 36 Norte 0 -- -- 66
2020-03-07 18:00:00 19.3 21 Norte 39 Norte 0 -- -- 63
2020-03-07 17:00:00 20.3 22 Norte 39 Norte 0 -- -- 61
2020-03-07 16:00:00 20.4 22 Norte 40 Norte 0 -- -- 59
2020-03-07 15:00:00 20.9 21 Norte 40 Norte 0 -- -- 57
2020-03-07 14:00:00 20.8 22 Norte 41 Norte 0 -- -- 58
2020-03-07 13:00:00 20.7 22 Norte 42 Norte 0 -- -- 56
2020-03-07 12:00:00 20.5 22 Norte 39 Norte 0 -- -- 55
2020-03-07 11:00:00 20.3 21 Norte 40 Norte 0 -- -- 56
2020-03-07 10:00:00 19.2 21 Norte 36 Norte 0 -- -- 59
2020-03-07 09:00:00 18.3 20 Norte 35 Norte 0 -- -- 62
2020-03-07 08:00:00 17.6 17 Norte 32 Norte 0 -- -- 63
2020-03-07 07:00:00 17.6 19 Norte 34 Norte 0 -- -- 62
2020-03-07 06:00:00 17.5 17 Norte 35 Norte 0 -- -- 64
2020-03-07 05:00:00 17.6 20 Norte 35 Norte 0 -- -- 65
2020-03-07 04:00:00 17.7 17 Norte 34 Norte 0 -- -- 66
2020-03-07 03:00:00 17.7 18 Norte 36 Norte 0 -- -- 61
2020-03-07 02:00:00 17.6 19 Norte 37 Norte 0 -- -- 64
2020-03-07 01:00:00 17.6 17 Norte 36 Noroeste 0 -- -- 65
2020-03-07 00:00:00 17.4 17 Norte 37 Norte 0 -- -- 64
2020-03-06 23:00:00 17.7 19 Norte 44 Norte 0 -- -- 61
2020-03-06 22:00:00 17.9 15 Norte 37 Norte 0 -- -- 63
2020-03-06 21:00:00 18 21 Norte 41 Norte 0 -- -- 60
2020-03-06 20:00:00 18.1 21 Norte 41 Norte 0 -- -- 60
2020-03-06 19:00:00 18.2 17 Norte 34 Nordeste 0 -- -- 61
2020-03-06 18:00:00 18.5 21 Norte 37 Norte 0 -- -- 61
2020-03-06 17:00:00 19.6 19 Norte 42 Norte 0 -- -- 57
2020-03-06 16:00:00 19.8 19 Norte 35 Norte 0 -- -- 57
2020-03-06 15:00:00 19.1 21 Norte 41 Norte 0 -- -- 58
2020-03-06 14:00:00 19.5 22 Norte 40 Norte 0 -- -- 57
2020-03-06 13:00:00 19.3 17 Norte 41 Norte 0 -- -- 59
2020-03-06 12:00:00 18.9 20 Norte 39 Norte 0 -- -- 59
2020-03-06 11:00:00 18.4 19 Norte 36 Norte 0 -- -- 62
2020-03-06 10:00:00 17.8 23 Norte 45 Norte 0 -- -- 63
2020-03-06 09:00:00 17.5 19 Norte 42 Norte 0 -- -- 64
2020-03-06 08:00:00 17.5 19 Norte 40 Norte 0 -- -- 70
2020-03-06 07:00:00 17.3 18 Norte 39 Norte 0 -- -- 76
2020-03-06 06:00:00 17.1 18 Norte 39 Norte 0.2 -- -- 89
2020-03-06 05:00:00 17.3 21 Norte 37 Nordeste 0 -- -- 87
2020-03-06 04:00:00 17.5 17 Norte 36 Norte 0.4 -- -- 87
2020-03-06 03:00:00 17.9 16 Norte 31 Norte 0 -- -- 85
2020-03-06 02:00:00 18.9 13 Noroeste 30 Norte 0 -- -- 72
2020-03-06 01:00:00 19.1 15 Norte 36 Norte 0 -- -- 67
2020-03-06 00:00:00 19 19 Norte 31 Norte 0 -- -- 74
2020-03-05 23:00:00 18.9 18 Norte 32 Noroeste 0 -- -- 72
2020-03-05 22:00:00 18.8 18 Norte 38 Noroeste 0 -- -- 70
2020-03-05 21:00:00 18.7 19 Norte 36 Norte 0 -- -- 70
2020-03-05 20:00:00 18.9 18 Norte 36 Norte 0 -- -- 70
2020-03-05 19:00:00 19.1 21 Norte 38 Norte 0 -- -- 70
2020-03-05 18:00:00 19.6 20 Norte 37 Norte 0 -- -- 69
2020-03-05 17:00:00 20.2 19 Norte 34 Norte 0 -- -- 63
2020-03-05 16:00:00 20.5 18 Norte 33 Norte 0 -- -- 63
2020-03-05 15:00:00 20.7 22 Norte 39 Norte 0 -- -- 64
2020-03-05 14:00:00 20.3 18 Norte 36 Norte 0 -- -- 65
2020-03-05 13:00:00 20.3 20 Norte 34 Norte 0 -- -- 65
2020-03-05 12:00:00 19.7 16 Norte 33 Noroeste 0 -- -- 71
2020-03-05 11:00:00 19.4 17 Norte 36 Norte 0 -- -- 72
2020-03-05 10:00:00 18.8 20 Norte 33 Norte 0 -- -- 74
2020-03-05 09:00:00 18.3 16 Norte 31 Norte 0 -- -- 77
2020-03-05 08:00:00 18 15 Norte 29 Norte 0 -- -- 78
2020-03-05 07:00:00 17.9 18 Norte 32 Norte 0 -- -- 79
2020-03-05 06:00:00 18 16 Norte 29 Norte 0 -- -- 80
2020-03-05 05:00:00 18 18 Norte 32 Norte 0 -- -- 79
2020-03-05 04:00:00 18 18 Norte 34 Norte 0 -- -- 76
2020-03-05 03:00:00 18.1 15 Norte 31 Norte 0 -- -- 77
2020-03-05 02:00:00 18.1 17 Norte 33 Noroeste 0 -- -- 78
2020-03-05 01:00:00 18.2 18 Norte 33 Norte 0 -- -- 79
2020-03-05 00:00:00 18.4 18 Norte 32 Norte 0 -- -- 79